createdAt,value
2018-04-18T00:00:32.217Z,16
2018-04-18T00:01:32.165Z,16
2018-04-18T00:02:32.191Z,16.06
2018-04-18T00:03:32.159Z,16
2018-04-18T00:04:32.187Z,16.06
2018-04-18T00:05:32.179Z,16.06
2018-04-18T00:06:32.155Z,16
2018-04-18T00:07:32.165Z,15.88
2018-04-18T00:08:32.173Z,15.88
2018-04-18T00:09:32.176Z,15.81
2018-04-18T00:10:32.171Z,15.75
2018-04-18T00:11:32.183Z,15.75
2018-04-18T00:12:32.169Z,15.75
2018-04-18T00:13:32.199Z,15.75
2018-04-18T00:14:32.193Z,15.69
2018-04-18T00:15:32.153Z,15.69
2018-04-18T00:16:32.165Z,15.63
2018-04-18T00:17:32.176Z,15.63
2018-04-18T00:18:32.144Z,15.63
2018-04-18T00:19:32.282Z,15.63
2018-04-18T00:20:32.149Z,15.69
2018-04-18T00:21:32.182Z,15.69
2018-04-18T00:22:32.173Z,15.69
2018-04-18T00:23:32.190Z,15.69
2018-04-18T00:24:32.217Z,15.63
2018-04-18T00:25:32.164Z,15.56
2018-04-18T00:26:32.312Z,15.5
2018-04-18T00:27:32.181Z,15.5
2018-04-18T00:28:32.235Z,15.5
2018-04-18T00:29:32.353Z,15.25
2018-04-18T00:30:32.258Z,15.13
2018-04-18T00:31:32.267Z,14.87
2018-04-18T00:32:32.268Z,14.81
2018-04-18T00:33:32.154Z,14.63
2018-04-18T00:34:32.268Z,14.56
2018-04-18T00:35:32.280Z,14.56
2018-04-18T00:36:32.139Z,14.5
2018-04-18T00:37:32.175Z,14.5
2018-04-18T00:38:32.151Z,14.5
2018-04-18T00:39:32.172Z,14.56
2018-04-18T00:40:32.174Z,14.56
2018-04-18T00:41:32.266Z,14.56
2018-04-18T00:42:32.282Z,14.56
2018-04-18T00:43:32.176Z,14.56
2018-04-18T00:44:32.280Z,14.63
2018-04-18T00:45:32.171Z,14.63
2018-04-18T00:46:32.166Z,14.63
2018-04-18T00:47:32.143Z,14.69
2018-04-18T00:48:32.220Z,14.63
2018-04-18T00:49:32.166Z,14.69
2018-04-18T00:50:32.161Z,14.63
2018-04-18T00:51:32.274Z,14.63
2018-04-18T00:52:32.138Z,14.63
2018-04-18T00:53:32.156Z,14.69
2018-04-18T00:54:32.141Z,14.69
2018-04-18T00:55:32.132Z,14.69
2018-04-18T00:56:32.308Z,14.69
2018-04-18T00:57:32.177Z,14.69
2018-04-18T00:58:32.127Z,14.56
2018-04-18T00:59:32.153Z,14.56
2018-04-18T01:00:32.163Z,14.56
2018-04-18T01:01:32.157Z,14.44
2018-04-18T01:02:32.164Z,14.5
2018-04-18T01:03:32.144Z,14.44
2018-04-18T01:04:32.264Z,14.44
2018-04-18T01:05:32.174Z,14.44
2018-04-18T01:06:32.140Z,14.44
2018-04-18T01:07:32.134Z,14.44
2018-04-18T01:08:32.157Z,14.44
2018-04-18T01:09:32.386Z,14.44
2018-04-18T01:10:32.157Z,14.44
2018-04-18T01:11:32.174Z,14.44
2018-04-18T01:12:32.137Z,14.44
2018-04-18T01:13:32.150Z,14.44
2018-04-18T01:14:32.126Z,14.5
2018-04-18T01:15:32.167Z,14.44
2018-04-18T01:16:32.170Z,14.38
2018-04-18T01:17:32.127Z,14.31
2018-04-18T01:18:32.132Z,14.25
2018-04-18T01:19:32.132Z,14.25
2018-04-18T01:20:32.165Z,14.19
2018-04-18T01:21:32.138Z,14.13
2018-04-18T01:22:32.122Z,14.13
2018-04-18T01:23:32.163Z,14.13
2018-04-18T01:24:32.110Z,14.13
2018-04-18T01:25:32.134Z,14.06
2018-04-18T01:26:32.190Z,14.13
2018-04-18T01:27:32.127Z,14.06
2018-04-18T01:28:32.108Z,14
2018-04-18T01:29:32.146Z,14
2018-04-18T01:30:32.168Z,14
2018-04-18T01:31:32.166Z,14
2018-04-18T01:32:32.165Z,13.94
2018-04-18T01:33:32.154Z,13.94
2018-04-18T01:34:32.132Z,13.88
2018-04-18T01:35:32.140Z,13.88
2018-04-18T01:36:32.150Z,13.88
2018-04-18T01:37:32.169Z,13.81
2018-04-18T01:38:32.147Z,13.81
2018-04-18T01:39:32.111Z,13.81
2018-04-18T01:40:32.155Z,13.75
2018-04-18T01:41:32.135Z,13.81
2018-04-18T01:42:32.120Z,13.75
2018-04-18T01:43:32.137Z,13.75
2018-04-18T01:44:32.117Z,13.75
2018-04-18T01:45:32.163Z,13.69
2018-04-18T01:46:32.135Z,13.69
2018-04-18T01:47:32.125Z,13.69
2018-04-18T01:48:32.234Z,13.62
2018-04-18T01:49:32.175Z,13.62
2018-04-18T01:50:32.150Z,13.56
2018-04-18T01:51:32.194Z,13.56
2018-04-18T01:52:32.110Z,13.5
2018-04-18T01:53:32.117Z,13.5
2018-04-18T01:54:32.102Z,13.5
2018-04-18T01:55:32.124Z,13.5
2018-04-18T01:56:32.114Z,13.5
2018-04-18T01:57:32.098Z,13.44
2018-04-18T01:58:32.179Z,13.44
2018-04-18T01:59:32.155Z,13.44
2018-04-18T02:00:32.104Z,13.44
2018-04-18T02:01:32.103Z,13.5
2018-04-18T02:02:32.130Z,13.5
2018-04-18T02:03:32.110Z,13.5
2018-04-18T02:04:32.120Z,13.44
2018-04-18T02:05:32.141Z,13.44
2018-04-18T02:06:32.117Z,13.44
2018-04-18T02:07:32.102Z,13.44
2018-04-18T02:08:32.080Z,13.44
2018-04-18T02:09:32.103Z,13.44
2018-04-18T02:10:32.120Z,13.44
2018-04-18T02:11:32.140Z,13.44
2018-04-18T02:12:32.163Z,13.44
2018-04-18T02:13:32.096Z,13.44
2018-04-18T02:14:32.090Z,13.38
2018-04-18T02:15:32.110Z,13.44
2018-04-18T02:16:32.131Z,13.38
2018-04-18T02:17:32.097Z,13.31
2018-04-18T02:18:32.120Z,13.38
2018-04-18T02:19:32.103Z,13.31
2018-04-18T02:20:32.116Z,13.31
2018-04-18T02:21:32.108Z,13.31
2018-04-18T02:22:32.101Z,13.31
2018-04-18T02:23:32.116Z,13.38
2018-04-18T02:24:32.131Z,13.31
2018-04-18T02:25:32.101Z,13.31
2018-04-18T02:26:32.115Z,13.31
2018-04-18T02:27:32.080Z,13.31
2018-04-18T02:28:32.089Z,13.31
2018-04-18T02:29:32.090Z,13.25
2018-04-18T02:30:32.145Z,13.31
2018-04-18T02:31:32.174Z,13.31
2018-04-18T02:32:32.122Z,13.31
2018-04-18T02:33:32.114Z,13.38
2018-04-18T02:34:32.118Z,13.38
2018-04-18T02:35:32.121Z,13.38
2018-04-18T02:36:32.099Z,13.31
2018-04-18T02:37:32.112Z,13.31
2018-04-18T02:38:32.191Z,13.31
2018-04-18T02:39:32.080Z,13.31
2018-04-18T02:40:32.161Z,13.31
2018-04-18T02:41:32.122Z,13.31
2018-04-18T02:42:32.118Z,13.31
2018-04-18T02:43:32.225Z,13.31
2018-04-18T02:44:32.111Z,13.38
2018-04-18T02:45:32.089Z,13.31
2018-04-18T02:46:32.357Z,13.31
2018-04-18T02:47:32.106Z,13.31
2018-04-18T02:48:32.099Z,13.25
2018-04-18T02:49:32.119Z,13.31
2018-04-18T02:50:32.114Z,13.25
2018-04-18T02:51:32.158Z,13.25
2018-04-18T02:52:32.137Z,13.31
2018-04-18T02:53:32.094Z,13.31
2018-04-18T02:54:32.102Z,13.31
2018-04-18T02:55:32.138Z,13.31
2018-04-18T02:56:32.220Z,13.38
2018-04-18T02:57:32.130Z,13.38
2018-04-18T02:58:32.079Z,13.38
2018-04-18T02:59:32.089Z,13.44
2018-04-18T03:00:32.108Z,13.38
2018-04-18T03:01:32.118Z,13.44
2018-04-18T03:02:32.091Z,13.44
2018-04-18T03:03:32.130Z,13.44
2018-04-18T03:04:32.104Z,13.44
2018-04-18T03:05:32.078Z,13.44
2018-04-18T03:06:32.156Z,13.44
2018-04-18T03:07:32.120Z,13.44
2018-04-18T03:08:32.100Z,13.44
2018-04-18T03:09:32.091Z,13.44
2018-04-18T03:10:32.108Z,13.44
2018-04-18T03:11:32.127Z,13.44
2018-04-18T03:12:32.079Z,13.44
2018-04-18T03:13:32.120Z,13.44
2018-04-18T03:14:32.071Z,13.5
2018-04-18T03:15:32.073Z,13.44
2018-04-18T03:16:32.117Z,13.44
2018-04-18T03:17:32.506Z,13.44
2018-04-18T03:18:32.146Z,13.38
2018-04-18T03:19:32.109Z,13.44
2018-04-18T03:20:32.076Z,13.38
2018-04-18T03:21:32.081Z,13.38
2018-04-18T03:22:32.097Z,13.38
2018-04-18T03:23:32.096Z,13.38
2018-04-18T03:24:32.085Z,13.38
2018-04-18T03:25:32.087Z,13.38
2018-04-18T03:26:32.470Z,13.38
2018-04-18T03:27:32.108Z,13.38
2018-04-18T03:28:32.129Z,13.38
2018-04-18T03:29:32.070Z,13.38
2018-04-18T03:30:32.078Z,13.38
2018-04-18T03:31:32.079Z,13.38
2018-04-18T03:32:32.109Z,13.38
2018-04-18T03:33:32.109Z,13.38
2018-04-18T03:34:32.078Z,13.38
2018-04-18T03:35:32.061Z,13.31
2018-04-18T03:36:32.054Z,13.38
2018-04-18T03:37:32.099Z,13.31
2018-04-18T03:38:32.086Z,13.38
2018-04-18T03:39:32.061Z,13.38
2018-04-18T03:40:32.059Z,13.38
2018-04-18T03:41:32.042Z,13.31
2018-04-18T03:42:32.086Z,13.31
2018-04-18T03:43:32.246Z,13.31
2018-04-18T03:44:32.062Z,13.31
2018-04-18T03:45:32.078Z,13.31
2018-04-18T03:46:32.060Z,13.31
2018-04-18T03:47:32.432Z,13.31
2018-04-18T03:48:32.080Z,13.31
2018-04-18T03:49:32.072Z,13.31
2018-04-18T03:50:32.066Z,13.31
2018-04-18T03:51:32.080Z,13.31
2018-04-18T03:52:32.112Z,13.25
2018-04-18T03:53:32.062Z,13.31
2018-04-18T03:54:32.395Z,13.31
2018-04-18T03:55:32.035Z,13.31
2018-04-18T03:56:32.073Z,13.31
2018-04-18T03:57:32.090Z,13.31
2018-04-18T03:58:32.056Z,13.25
2018-04-18T03:59:32.072Z,13.25
2018-04-18T04:00:32.044Z,13.25
2018-04-18T04:01:32.036Z,13.25
2018-04-18T04:02:32.472Z,13.25
2018-04-18T04:03:32.056Z,13.25
2018-04-18T04:04:32.068Z,13.19
2018-04-18T04:05:32.083Z,13.19
2018-04-18T04:06:32.123Z,13.19
2018-04-18T04:07:32.078Z,13.19
2018-04-18T04:08:32.042Z,13.19
2018-04-18T04:09:32.065Z,13.19
2018-04-18T04:10:32.629Z,13.13
2018-04-18T04:11:32.037Z,13.06
2018-04-18T04:12:32.067Z,13.06
2018-04-18T04:13:32.076Z,13
2018-04-18T04:14:32.072Z,13
2018-04-18T04:15:32.192Z,12.94
2018-04-18T04:16:32.369Z,12.88
2018-04-18T04:17:32.049Z,12.88
2018-04-18T04:18:32.021Z,12.81
2018-04-18T04:19:32.076Z,12.81
2018-04-18T04:20:32.025Z,12.88
2018-04-18T04:21:32.054Z,12.88
2018-04-18T04:22:32.063Z,12.94
2018-04-18T04:23:32.350Z,12.88
2018-04-18T04:24:32.070Z,12.88
2018-04-18T04:25:32.057Z,12.88
2018-04-18T04:26:32.031Z,12.81
2018-04-18T04:27:32.071Z,12.75
2018-04-18T04:28:32.127Z,12.75
2018-04-18T04:29:32.025Z,12.69
2018-04-18T04:30:32.051Z,12.63
2018-04-18T04:31:32.442Z,12.56
2018-04-18T04:32:32.037Z,12.5
2018-04-18T04:33:32.049Z,12.44
2018-04-18T04:34:32.049Z,12.37
2018-04-18T04:35:32.077Z,12.31
2018-04-18T04:36:32.047Z,12.37
2018-04-18T04:37:32.050Z,12.31
2018-04-18T04:38:32.042Z,12.25
2018-04-18T04:39:32.051Z,12.25
2018-04-18T04:40:32.043Z,12.19
2018-04-18T04:41:32.110Z,12.19
2018-04-18T04:42:32.030Z,12.06
2018-04-18T04:43:32.078Z,12.13
2018-04-18T04:44:32.095Z,12
2018-04-18T04:45:32.036Z,12
2018-04-18T04:46:32.029Z,12.06
2018-04-18T04:47:32.024Z,12
2018-04-18T04:48:32.084Z,12
2018-04-18T04:49:32.045Z,12
2018-04-18T04:50:32.022Z,12
2018-04-18T04:51:32.045Z,12.06
2018-04-18T04:52:32.059Z,12.06
2018-04-18T04:53:32.040Z,12.06
2018-04-18T04:54:32.205Z,12.06
2018-04-18T04:55:32.042Z,12.06
2018-04-18T04:56:32.041Z,12.06
2018-04-18T04:57:32.026Z,12.06
2018-04-18T04:58:32.046Z,12.13
2018-04-18T04:59:32.013Z,12.13
2018-04-18T05:00:32.047Z,12.13
2018-04-18T05:01:32.069Z,12.13
2018-04-18T05:02:32.267Z,12.06
2018-04-18T05:03:32.039Z,12.06
2018-04-18T05:04:32.056Z,12
2018-04-18T05:05:32.055Z,12
2018-04-18T05:06:32.015Z,12.06
2018-04-18T05:07:32.093Z,12.06
2018-04-18T05:08:32.037Z,12
2018-04-18T05:09:32.044Z,12
2018-04-18T05:10:32.023Z,12.13
2018-04-18T05:11:32.014Z,12.13
2018-04-18T05:12:31.993Z,12.19
2018-04-18T05:13:32.030Z,12.25
2018-04-18T05:14:32.182Z,12.25
2018-04-18T05:15:32.077Z,12.31
2018-04-18T05:16:32.031Z,12.37
2018-04-18T05:17:32.028Z,12.44
2018-04-18T05:18:32.148Z,12.5
2018-04-18T05:19:32.101Z,12.56
2018-04-18T05:20:32.017Z,12.56
2018-04-18T05:21:32.026Z,12.63
2018-04-18T05:22:32.010Z,12.69
2018-04-18T05:23:32.029Z,12.75
2018-04-18T05:24:32.048Z,12.81
2018-04-18T05:25:32.195Z,12.81
2018-04-18T05:26:32.130Z,12.88
2018-04-18T05:27:32.115Z,12.88
2018-04-18T05:28:32.042Z,12.94
2018-04-18T05:29:32.003Z,13
2018-04-18T05:30:32.086Z,13
2018-04-18T05:31:32.022Z,13.06
2018-04-18T05:32:32.093Z,13.13
2018-04-18T05:33:32.943Z,13.06
2018-04-18T05:34:32.070Z,13.13
2018-04-18T05:35:32.027Z,13.13
2018-04-18T05:36:32.024Z,13.19
2018-04-18T05:37:32.022Z,13.19
2018-04-18T05:38:32.074Z,13.19
2018-04-18T05:39:32.014Z,13.25
2018-04-18T05:40:32.032Z,13.25
2018-04-18T05:41:32.026Z,13.31
2018-04-18T05:42:32.034Z,13.31
2018-04-18T05:43:32.051Z,13.31
2018-04-18T05:44:32.019Z,13.31
2018-04-18T05:45:32.011Z,13.25
2018-04-18T05:46:32.038Z,13.25
2018-04-18T05:47:32.044Z,13.06
2018-04-18T05:48:32.065Z,13
2018-04-18T05:49:32.118Z,13
2018-04-18T05:50:32.021Z,13
2018-04-18T05:51:32.088Z,12.94
2018-04-18T05:52:32.011Z,12.81
2018-04-18T05:53:32.139Z,12.69
2018-04-18T05:54:32.016Z,12.69
2018-04-18T05:55:32.106Z,12.69
2018-04-18T05:56:32.011Z,12.81
2018-04-18T05:57:32.077Z,12.81
2018-04-18T05:58:32.166Z,12.88
2018-04-18T05:59:32.070Z,12.88
2018-04-18T06:00:32.142Z,12.94
2018-04-18T06:01:32.026Z,12.94
2018-04-18T06:02:32.063Z,13
2018-04-18T06:03:32.060Z,13
2018-04-18T06:04:32.074Z,13
2018-04-18T06:05:32.070Z,13
2018-04-18T06:06:32.049Z,13.06
2018-04-18T06:07:32.196Z,13.13
2018-04-18T06:08:32.077Z,13.19
2018-04-18T06:09:32.138Z,13.19
2018-04-18T06:10:32.087Z,13.19
2018-04-18T06:11:31.993Z,13.25
2018-04-18T06:12:32.045Z,13.25
2018-04-18T06:13:32.120Z,13.31
2018-04-18T06:14:31.973Z,13.38
2018-04-18T06:15:31.974Z,13.44
2018-04-18T06:16:31.981Z,13.5
2018-04-18T06:17:31.986Z,13.5
2018-04-18T06:18:32.024Z,13.62
2018-04-18T06:19:32.019Z,13.62
2018-04-18T06:20:31.983Z,13.69
2018-04-18T06:21:32.011Z,13.69
2018-04-18T06:22:31.983Z,13.75
2018-04-18T06:23:32.004Z,13.81
2018-04-18T06:24:32.098Z,13.75
2018-04-18T06:25:32.356Z,13.81
2018-04-18T06:26:32.015Z,13.81
2018-04-18T06:27:32.246Z,13.81
2018-04-18T06:28:32.092Z,13.88
2018-04-18T06:29:32.039Z,13.88
2018-04-18T06:30:32.167Z,13.94
2018-04-18T06:31:32.050Z,13.94
2018-04-18T06:32:32.033Z,14
2018-04-18T06:33:32.084Z,14
2018-04-18T06:34:32.010Z,14
2018-04-18T06:35:31.976Z,14.06
2018-04-18T06:36:31.983Z,14.06
2018-04-18T06:37:31.969Z,14.06
2018-04-18T06:38:32.019Z,14.13
2018-04-18T06:39:32.003Z,14.19
2018-04-18T06:40:32.001Z,14.25
2018-04-18T06:41:32.011Z,14.25
2018-04-18T06:42:31.988Z,14.31
2018-04-18T06:43:32.106Z,14.38
2018-04-18T06:44:31.964Z,14.38
2018-04-18T06:45:32.016Z,14.44
2018-04-18T06:46:31.988Z,14.44
2018-04-18T06:47:32.025Z,14.44
2018-04-18T06:48:32.006Z,14.5
2018-04-18T06:49:32.001Z,14.56
2018-04-18T06:50:31.953Z,14.63
2018-04-18T06:51:31.973Z,14.63
2018-04-18T06:52:32.013Z,14.69
2018-04-18T06:53:32.004Z,14.75
2018-04-18T06:54:32.071Z,14.75
2018-04-18T06:55:32.052Z,14.87
2018-04-18T06:56:31.970Z,14.87
2018-04-18T06:57:32.001Z,14.94
2018-04-18T06:58:31.989Z,15
2018-04-18T06:59:32.138Z,15
2018-04-18T07:00:32.073Z,15.06
2018-04-18T07:01:31.957Z,15.13
2018-04-18T07:02:32.029Z,15.19
2018-04-18T07:03:32.110Z,15.19
2018-04-18T07:04:31.993Z,15.19
2018-04-18T07:05:32.081Z,15.25
2018-04-18T07:06:31.967Z,15.25
2018-04-18T07:07:32.001Z,15.31
2018-04-18T07:08:32.045Z,15.38
2018-04-18T07:09:32.108Z,15.44
2018-04-18T07:10:31.936Z,15.5
2018-04-18T07:11:31.952Z,15.5
2018-04-18T07:12:31.950Z,15.56
2018-04-18T07:13:32.041Z,15.5
2018-04-18T07:14:32.069Z,15.5
2018-04-18T07:15:31.965Z,15.63
2018-04-18T07:16:31.979Z,15.63
2018-04-18T07:17:32.052Z,15.69
2018-04-18T07:18:32.028Z,15.75
2018-04-18T07:19:31.942Z,15.81
2018-04-18T07:20:32.035Z,15.81
2018-04-18T07:21:31.927Z,15.88
2018-04-18T07:22:32.108Z,15.88
2018-04-18T07:23:32.001Z,15.94
2018-04-18T07:24:31.936Z,15.94
2018-04-18T07:25:31.986Z,15.94
2018-04-18T07:26:32.059Z,16
2018-04-18T07:27:31.959Z,16
2018-04-18T07:28:31.967Z,16.06
2018-04-18T07:29:32.004Z,16.06
2018-04-18T07:30:31.981Z,16.19
2018-04-18T07:31:32.016Z,16.19
2018-04-18T07:32:31.941Z,16.25
2018-04-18T07:33:32.069Z,16.25
2018-04-18T07:34:31.990Z,16.37
2018-04-18T07:35:31.960Z,16.44
2018-04-18T07:36:32.056Z,16.44
2018-04-18T07:37:32.110Z,16.5
2018-04-18T07:38:31.956Z,16.62
2018-04-18T07:39:31.960Z,16.56
2018-04-18T07:40:32.015Z,16.62
2018-04-18T07:41:31.995Z,16.62
2018-04-18T07:42:31.953Z,16.62
2018-04-18T07:43:31.999Z,16.75
2018-04-18T07:44:31.997Z,16.75
2018-04-18T07:45:31.980Z,16.81
2018-04-18T07:46:31.951Z,16.87
2018-04-18T07:47:31.928Z,16.87
2018-04-18T07:48:31.924Z,16.94
2018-04-18T07:49:31.986Z,16.94
2018-04-18T07:50:31.956Z,16.94
2018-04-18T07:51:32.006Z,17
2018-04-18T07:52:31.929Z,17
2018-04-18T07:53:31.995Z,17.06
2018-04-18T07:54:31.954Z,17
2018-04-18T07:55:31.928Z,17.06
2018-04-18T07:56:31.956Z,17.06
2018-04-18T07:57:31.970Z,17.06
2018-04-18T07:58:31.957Z,17.06
2018-04-18T07:59:31.932Z,17.06
2018-04-18T08:00:32.459Z,17.12
2018-04-18T08:01:31.931Z,17.12
2018-04-18T08:02:32.020Z,17.12
2018-04-18T08:03:32.042Z,17.12
2018-04-18T08:04:31.962Z,17.12
2018-04-18T08:05:32.126Z,17.19
2018-04-18T08:06:31.938Z,17.19
2018-04-18T08:07:31.970Z,17.19
2018-04-18T08:08:32.207Z,17.25
2018-04-18T08:09:31.941Z,17.25
2018-04-18T08:10:31.976Z,17.31
2018-04-18T08:11:31.950Z,17.31
2018-04-18T08:12:31.914Z,17.31
2018-04-18T08:13:31.944Z,17.31
2018-04-18T08:14:31.917Z,17.44
2018-04-18T08:15:32.009Z,17.37
2018-04-18T08:16:31.932Z,17.44
2018-04-18T08:17:32.080Z,17.44
2018-04-18T08:18:31.909Z,17.5
2018-04-18T08:19:31.945Z,17.5
2018-04-18T08:20:31.964Z,17.5
2018-04-18T08:21:31.925Z,17.56
2018-04-18T08:22:32.078Z,17.56
2018-04-18T08:23:31.954Z,17.56
2018-04-18T08:24:31.896Z,17.69
2018-04-18T08:25:32.002Z,17.69
2018-04-18T08:26:31.940Z,17.69
2018-04-18T08:27:31.994Z,17.69
2018-04-18T08:28:32.047Z,17.75
2018-04-18T08:29:32.046Z,17.75
2018-04-18T08:30:31.922Z,17.81
2018-04-18T08:31:31.917Z,17.87
2018-04-18T08:32:31.974Z,17.94
2018-04-18T08:33:31.923Z,17.94
2018-04-18T08:34:31.961Z,18
2018-04-18T08:35:31.961Z,18.06
2018-04-18T08:36:31.912Z,18.06
2018-04-18T08:37:31.937Z,18.12
2018-04-18T08:38:31.929Z,18.12
2018-04-18T08:39:31.986Z,18.25
2018-04-18T08:40:31.933Z,18.25
2018-04-18T08:41:32.009Z,18.12
2018-04-18T08:42:31.937Z,18.25
2018-04-18T08:43:31.884Z,18.25
2018-04-18T08:44:31.922Z,18.25
2018-04-18T08:45:31.934Z,18.44
2018-04-18T08:46:31.953Z,18.5
2018-04-18T08:47:31.971Z,18.56
2018-04-18T08:48:31.914Z,18.56
2018-04-18T08:49:31.935Z,18.56
2018-04-18T08:50:32.148Z,18.56
2018-04-18T08:51:31.909Z,18.56
2018-04-18T08:52:31.949Z,18.62
2018-04-18T08:53:31.954Z,18.62
2018-04-18T08:54:31.875Z,18.69
2018-04-18T08:55:31.912Z,18.75
2018-04-18T08:56:31.888Z,18.75
2018-04-18T08:57:31.905Z,18.81
2018-04-18T08:58:31.916Z,18.87
2018-04-18T08:59:31.881Z,18.87
2018-04-18T09:00:31.896Z,18.94
2018-04-18T09:01:31.911Z,19
2018-04-18T09:02:31.901Z,19
2018-04-18T09:03:31.886Z,19.06
2018-04-18T09:04:31.911Z,19.12
2018-04-18T09:05:31.885Z,19.19
2018-04-18T09:06:31.905Z,19.25
2018-04-18T09:07:31.881Z,19.25
2018-04-18T09:08:31.860Z,19.31
2018-04-18T09:09:31.875Z,19.25
2018-04-18T09:10:32.231Z,19.31
2018-04-18T09:11:31.879Z,19.37
2018-04-18T09:12:31.880Z,19.37
2018-04-18T09:13:31.910Z,19.44
2018-04-18T09:14:32.103Z,19.44
2018-04-18T09:15:31.871Z,19.44
2018-04-18T09:16:32.011Z,19.5
2018-04-18T09:17:31.888Z,19.56
2018-04-18T09:18:32.038Z,19.56
2018-04-18T09:19:31.970Z,19.69
2018-04-18T09:20:31.907Z,19.69
2018-04-18T09:21:32.108Z,19.81
2018-04-18T09:22:31.898Z,19.81
2018-04-18T09:23:31.876Z,19.81
2018-04-18T09:24:31.877Z,19.94
2018-04-18T09:25:31.881Z,20.06
2018-04-18T09:26:31.885Z,20.12
2018-04-18T09:27:31.896Z,20.19
2018-04-18T09:28:32.252Z,20.25
2018-04-18T09:29:31.970Z,20.25
2018-04-18T09:30:31.904Z,20.31
2018-04-18T09:31:31.927Z,20.31
2018-04-18T09:32:31.877Z,20.37
2018-04-18T09:33:31.928Z,20.37
2018-04-18T09:34:32.012Z,20.44
2018-04-18T09:35:31.869Z,20.56
2018-04-18T09:36:31.913Z,20.5
2018-04-18T09:37:31.945Z,20.56
2018-04-18T09:38:32.024Z,20.62
2018-04-18T09:39:31.903Z,20.62
2018-04-18T09:40:31.897Z,20.62
2018-04-18T09:41:31.911Z,20.62
2018-04-18T09:42:31.868Z,20.69
2018-04-18T09:43:31.931Z,20.69
2018-04-18T09:44:31.931Z,20.75
2018-04-18T09:45:31.936Z,20.75
2018-04-18T09:46:31.939Z,20.75
2018-04-18T09:47:31.852Z,20.81
2018-04-18T09:48:31.870Z,20.94
2018-04-18T09:49:31.870Z,21
2018-04-18T09:50:31.861Z,21.06
2018-04-18T09:51:31.860Z,21.12
2018-04-18T09:52:31.866Z,21.06
2018-04-18T09:53:31.856Z,21.12
2018-04-18T09:54:31.862Z,21.25
2018-04-18T09:55:31.850Z,21.31
2018-04-18T09:56:31.903Z,21.44
2018-04-18T09:57:31.901Z,21.44
2018-04-18T09:58:32.275Z,21.44
2018-04-18T09:59:31.943Z,21.5
2018-04-18T10:00:31.879Z,21.44
2018-04-18T10:01:31.913Z,21.44
2018-04-18T10:02:31.879Z,21.56
2018-04-18T10:03:31.900Z,21.62
2018-04-18T10:04:31.919Z,21.56
2018-04-18T10:05:31.899Z,21.62
2018-04-18T10:06:31.889Z,21.62
2018-04-18T10:07:31.871Z,21.69
2018-04-18T10:08:31.868Z,21.62
2018-04-18T10:09:31.852Z,21.69
2018-04-18T10:10:32.209Z,21.69
2018-04-18T10:11:31.896Z,21.75
2018-04-18T10:12:31.862Z,21.81
2018-04-18T10:13:31.881Z,21.87
2018-04-18T10:14:31.863Z,21.87
2018-04-18T10:15:31.879Z,21.94
2018-04-18T10:16:31.862Z,21.94
2018-04-18T10:17:31.916Z,22
2018-04-18T10:18:31.857Z,22
2018-04-18T10:19:32.043Z,22
2018-04-18T10:20:31.929Z,22.06
2018-04-18T10:21:31.896Z,22.25
2018-04-18T10:22:31.869Z,22.19
2018-04-18T10:23:31.850Z,22.19
2018-04-18T10:24:31.851Z,22.25
2018-04-18T10:25:31.872Z,22.25
2018-04-18T10:26:31.884Z,22.19
2018-04-18T10:27:31.864Z,22.13
2018-04-18T10:28:31.913Z,22.13
2018-04-18T10:29:31.864Z,22.25
2018-04-18T10:30:31.859Z,22.25
2018-04-18T10:31:31.945Z,22.25
2018-04-18T10:32:31.857Z,22.31
2018-04-18T10:33:31.903Z,22.37
2018-04-18T10:34:31.834Z,22.5
2018-04-18T10:35:32.070Z,22.56
2018-04-18T10:36:31.900Z,22.56
2018-04-18T10:37:31.890Z,22.69
2018-04-18T10:38:32.033Z,22.69
2018-04-18T10:39:32.048Z,22.69
2018-04-18T10:40:31.856Z,22.69
2018-04-18T10:41:31.841Z,22.75
2018-04-18T10:42:31.863Z,22.81
2018-04-18T10:43:31.859Z,22.81
2018-04-18T10:44:31.872Z,22.87
2018-04-18T10:45:31.889Z,22.94
2018-04-18T10:46:31.829Z,22.94
2018-04-18T10:47:31.921Z,23
2018-04-18T10:48:31.860Z,23
2018-04-18T10:49:31.871Z,23.06
2018-04-18T10:50:31.864Z,23.06
2018-04-18T10:51:31.872Z,23.12
2018-04-18T10:52:31.867Z,23.19
2018-04-18T10:53:31.844Z,23.25
2018-04-18T10:54:31.966Z,23.31
2018-04-18T10:55:31.864Z,23.31
2018-04-18T10:56:31.868Z,23.38
2018-04-18T10:57:31.907Z,23.5
2018-04-18T10:58:32.264Z,23.5
2018-04-18T10:59:31.882Z,23.56
2018-04-18T11:00:31.836Z,23.56
2018-04-18T11:01:31.849Z,23.62
2018-04-18T11:02:31.896Z,23.75
2018-04-18T11:03:31.908Z,23.75
2018-04-18T11:04:31.822Z,23.69
2018-04-18T11:05:31.881Z,23.69
2018-04-18T11:06:31.827Z,23.75
2018-04-18T11:07:31.856Z,23.69
2018-04-18T11:08:31.846Z,23.75
2018-04-18T11:09:31.877Z,23.81
2018-04-18T11:10:31.847Z,23.81
2018-04-18T11:11:31.855Z,23.87
2018-04-18T11:12:31.836Z,23.81
2018-04-18T11:13:31.850Z,23.87
2018-04-18T11:14:31.836Z,23.87
2018-04-18T11:15:31.841Z,23.87
2018-04-18T11:16:31.859Z,23.87
2018-04-18T11:17:31.854Z,23.94
2018-04-18T11:18:31.820Z,23.94
2018-04-18T11:19:31.814Z,23.94
2018-04-18T11:20:32.010Z,23.94
2018-04-18T11:21:31.841Z,23.87
2018-04-18T11:22:31.864Z,23.94
2018-04-18T11:23:31.865Z,24
2018-04-18T11:24:31.830Z,23.94
2018-04-18T11:25:31.845Z,24
2018-04-18T11:26:31.943Z,24
2018-04-18T11:27:31.861Z,24
2018-04-18T11:28:32.100Z,24.12
2018-04-18T11:29:31.867Z,24.06
2018-04-18T11:30:31.814Z,24.06
2018-04-18T11:31:32.040Z,24.06
2018-04-18T11:32:31.916Z,24.06
2018-04-18T11:33:31.979Z,24.12
2018-04-18T11:34:31.844Z,24.19
2018-04-18T11:35:31.863Z,24.19
2018-04-18T11:36:31.809Z,24.19
2018-04-18T11:37:31.847Z,24.19
2018-04-18T11:38:31.852Z,24.19
2018-04-18T11:39:31.898Z,24.25
2018-04-18T11:40:31.861Z,24.25
2018-04-18T11:41:31.834Z,24.25
2018-04-18T11:42:31.897Z,24.31
2018-04-18T11:43:31.830Z,24.31
2018-04-18T11:44:31.871Z,24.31
2018-04-18T11:45:32.241Z,24.37
2018-04-18T11:46:31.813Z,24.37
2018-04-18T11:47:31.924Z,24.31
2018-04-18T11:48:31.826Z,24.37
2018-04-18T11:49:32.049Z,24.31
2018-04-18T11:50:31.884Z,24.37
2018-04-18T11:51:31.920Z,24.44
2018-04-18T11:52:31.873Z,24.44
2018-04-18T11:53:31.859Z,24.5
2018-04-18T11:54:31.871Z,24.56
2018-04-18T11:55:31.826Z,24.63
2018-04-18T11:56:31.857Z,24.63
2018-04-18T11:57:32.219Z,24.63
2018-04-18T11:58:31.854Z,24.69
2018-04-18T11:59:31.845Z,24.75
2018-04-18T12:00:31.868Z,24.75
2018-04-18T12:01:31.825Z,24.69
2018-04-18T12:02:31.889Z,24.75
2018-04-18T12:03:32.579Z,24.75
2018-04-18T12:04:31.879Z,24.75
2018-04-18T12:05:31.843Z,24.81
2018-04-18T12:06:31.851Z,24.81
2018-04-18T12:07:31.863Z,24.87
2018-04-18T12:08:31.856Z,24.87
2018-04-18T12:09:31.828Z,24.87
2018-04-18T12:10:31.889Z,24.87
2018-04-18T12:11:32.187Z,24.94
2018-04-18T12:12:31.867Z,24.94
2018-04-18T12:13:31.838Z,25
2018-04-18T12:14:31.804Z,25
2018-04-18T12:15:31.854Z,25.06
2018-04-18T12:16:31.869Z,25.06
2018-04-18T12:17:31.852Z,25.06
2018-04-18T12:18:32.073Z,25.06
2018-04-18T12:19:31.851Z,25.12
2018-04-18T12:20:31.864Z,25.12
2018-04-18T12:21:31.893Z,25.12
2018-04-18T12:22:32.046Z,25.12
2018-04-18T12:23:31.967Z,25.12
2018-04-18T12:24:32.019Z,25.19
2018-04-18T12:25:31.910Z,25.19
2018-04-18T12:26:31.908Z,25.19
2018-04-18T12:27:31.878Z,25.25
2018-04-18T12:28:31.947Z,25.25
2018-04-18T12:29:31.825Z,25.25
2018-04-18T12:30:31.955Z,25.31
2018-04-18T12:31:31.848Z,25.37
2018-04-18T12:32:31.819Z,25.31
2018-04-18T12:33:31.980Z,25.44
2018-04-18T12:34:32.032Z,25.44
2018-04-18T12:35:31.931Z,25.44
2018-04-18T12:36:31.929Z,25.56
2018-04-18T12:37:31.888Z,25.56
2018-04-18T12:38:31.883Z,25.56
2018-04-18T12:39:31.900Z,25.62
2018-04-18T12:40:31.900Z,25.69
2018-04-18T12:41:31.978Z,25.62
2018-04-18T12:42:31.830Z,25.62
2018-04-18T12:43:31.832Z,25.69
2018-04-18T12:44:31.814Z,25.81
2018-04-18T12:45:31.801Z,25.81
2018-04-18T12:46:31.860Z,25.81
2018-04-18T12:47:31.858Z,25.88
2018-04-18T12:48:31.862Z,25.88
2018-04-18T12:49:31.802Z,25.88
2018-04-18T12:50:31.881Z,25.88
2018-04-18T12:51:31.881Z,25.94
2018-04-18T12:52:31.832Z,25.94
2018-04-18T12:53:31.843Z,25.94
2018-04-18T12:54:31.927Z,26
2018-04-18T12:55:31.792Z,26
2018-04-18T12:56:31.904Z,26
2018-04-18T12:57:32.237Z,26
2018-04-18T12:58:31.914Z,26
2018-04-18T12:59:31.840Z,26.06